sensor_id;sensor_type;location;lat;lon;timestamp;P1;durP1;ratioP1;P2;durP2;ratioP2
7432;SDS011;32233;49.500;7.764;2022-09-01T00:00:39;5.23;;;4.73;;
7432;SDS011;32233;49.500;7.764;2022-09-01T00:03:13;7.87;;;5.07;;
7432;SDS011;32233;49.500;7.764;2022-09-01T00:05:40;5.33;;;4.93;;
7432;SDS011;32233;49.500;7.764;2022-09-01T00:08:07;4.80;;;4.40;;
7432;SDS011;32233;49.500;7.764;2022-09-01T00:10:33;4.17;;;3.93;;
7432;SDS011;32233;49.500;7.764;2022-09-01T00:13:00;5.03;;;4.63;;
7432;SDS011;32233;49.500;7.764;2022-09-01T00:15:27;4.33;;;3.93;;
7432;SDS011;32233;49.500;7.764;2022-09-01T00:17:54;5.00;;;4.60;;
7432;SDS011;32233;49.500;7.764;2022-09-01T00:20:20;4.63;;;4.30;;
7432;SDS011;32233;49.500;7.764;2022-09-01T00:22:47;4.53;;;4.13;;
7432;SDS011;32233;49.500;7.764;2022-09-01T00:25:13;6.27;;;4.87;;
7432;SDS011;32233;49.500;7.764;2022-09-01T00:27:40;4.73;;;4.10;;
7432;SDS011;32233;49.500;7.764;2022-09-01T00:30:06;4.60;;;4.30;;
7432;SDS011;32233;49.500;7.764;2022-09-01T00:32:33;5.13;;;4.67;;
7432;SDS011;32233;49.500;7.764;2022-09-01T00:34:59;4.73;;;4.20;;
7432;SDS011;32233;49.500;7.764;2022-09-01T00:37:26;4.50;;;4.10;;
7432;SDS011;32233;49.500;7.764;2022-09-01T00:39:52;4.63;;;4.23;;
7432;SDS011;32233;49.500;7.764;2022-09-01T00:42:19;4.87;;;4.47;;
7432;SDS011;32233;49.500;7.764;2022-09-01T00:44:46;5.20;;;4.70;;
7432;SDS011;32233;49.500;7.764;2022-09-01T00:47:12;4.67;;;4.33;;
7432;SDS011;32233;49.500;7.764;2022-09-01T00:49:41;4.80;;;4.40;;
7432;SDS011;32233;49.500;7.764;2022-09-01T00:52:13;4.53;;;4.23;;
7432;SDS011;32233;49.500;7.764;2022-09-01T00:54:44;6.20;;;4.50;;
7432;SDS011;32233;49.500;7.764;2022-09-01T00:57:11;5.20;;;4.80;;
7432;SDS011;32233;49.500;7.764;2022-09-01T00:59:46;4.50;;;4.20;;
7432;SDS011;32233;49.500;7.764;2022-09-01T01:02:14;5.30;;;4.80;;
7432;SDS011;32233;49.500;7.764;2022-09-01T01:04:41;5.10;;;4.70;;
7432;SDS011;32233;49.500;7.764;2022-09-01T01:07:09;4.83;;;4.43;;
7432;SDS011;32233;49.500;7.764;2022-09-01T01:09:37;5.10;;;4.60;;
7432;SDS011;32233;49.500;7.764;2022-09-01T01:12:04;7.10;;;4.83;;
7432;SDS011;32233;49.500;7.764;2022-09-01T01:14:33;5.27;;;4.73;;
7432;SDS011;32233;49.500;7.764;2022-09-01T01:17:02;5.23;;;4.83;;
7432;SDS011;32233;49.500;7.764;2022-09-01T01:19:39;5.03;;;4.63;;
7432;SDS011;32233;49.500;7.764;2022-09-01T01:25:23;5.37;;;4.33;;
7432;SDS011;32233;49.500;7.764;2022-09-01T01:27:50;5.60;;;4.53;;
7432;SDS011;32233;49.500;7.764;2022-09-01T01:30:17;5.93;;;5.10;;
7432;SDS011;32233;49.500;7.764;2022-09-01T01:32:44;5.43;;;4.93;;
7432;SDS011;32233;49.500;7.764;2022-09-01T01:35:14;4.67;;;4.37;;
7432;SDS011;32233;49.500;7.764;2022-09-01T01:37:43;6.03;;;4.57;;
7432;SDS011;32233;49.500;7.764;2022-09-01T01:40:16;5.33;;;4.30;;
7432;SDS011;32233;49.500;7.764;2022-09-01T01:42:45;4.93;;;4.13;;
7432;SDS011;32233;49.500;7.764;2022-09-01T01:45:16;5.33;;;4.87;;
7432;SDS011;32233;49.500;7.764;2022-09-01T01:47:45;4.80;;;4.40;;
7432;SDS011;32233;49.500;7.764;2022-09-01T01:50:21;4.53;;;4.23;;
7432;SDS011;32233;49.500;7.764;2022-09-01T01:52:48;4.73;;;4.30;;
7432;SDS011;32233;49.500;7.764;2022-09-01T01:55:24;4.30;;;4.00;;
7432;SDS011;32233;49.500;7.764;2022-09-01T01:57:56;4.90;;;4.50;;
7432;SDS011;32233;49.500;7.764;2022-09-01T02:00:25;4.27;;;3.97;;
7432;SDS011;32233;49.500;7.764;2022-09-01T02:02:56;4.20;;;3.90;;
7432;SDS011;32233;49.500;7.764;2022-09-01T02:05:24;4.23;;;3.83;;
7432;SDS011;32233;49.500;7.764;2022-09-01T02:07:56;5.47;;;4.87;;
7432;SDS011;32233;49.500;7.764;2022-09-01T02:10:27;4.60;;;4.20;;
7432;SDS011;32233;49.500;7.764;2022-09-01T02:12:59;4.27;;;3.90;;
7432;SDS011;32233;49.500;7.764;2022-09-01T02:15:30;6.30;;;4.00;;
7432;SDS011;32233;49.500;7.764;2022-09-01T02:18:00;4.57;;;4.27;;
7432;SDS011;32233;49.500;7.764;2022-09-01T02:20:31;4.73;;;4.17;;
7432;SDS011;32233;49.500;7.764;2022-09-01T02:22:58;4.77;;;4.30;;
7432;SDS011;32233;49.500;7.764;2022-09-01T02:25:38;4.77;;;4.37;;
7432;SDS011;32233;49.500;7.764;2022-09-01T02:28:30;4.70;;;4.40;;
7432;SDS011;32233;49.500;7.764;2022-09-01T02:30:58;4.80;;;4.40;;
7432;SDS011;32233;49.500;7.764;2022-09-01T02:33:29;4.93;;;4.20;;
7432;SDS011;32233;49.500;7.764;2022-09-01T02:35:58;4.80;;;4.50;;
7432;SDS011;32233;49.500;7.764;2022-09-01T02:38:26;4.90;;;4.43;;
7432;SDS011;32233;49.500;7.764;2022-09-01T02:40:56;5.90;;;4.63;;
7432;SDS011;32233;49.500;7.764;2022-09-01T02:43:24;5.23;;;4.80;;
7432;SDS011;32233;49.500;7.764;2022-09-01T02:45:55;6.70;;;4.40;;
7432;SDS011;32233;49.500;7.764;2022-09-01T02:48:23;6.97;;;5.33;;
7432;SDS011;32233;49.500;7.764;2022-09-01T02:50:51;5.47;;;4.97;;
7432;SDS011;32233;49.500;7.764;2022-09-01T02:53:19;5.00;;;4.60;;
7432;SDS011;32233;49.500;7.764;2022-09-01T02:55:45;5.33;;;4.77;;
7432;SDS011;32233;49.500;7.764;2022-09-01T02:58:12;7.07;;;5.47;;
7432;SDS011;32233;49.500;7.764;2022-09-01T03:00:42;5.83;;;4.90;;
7432;SDS011;32233;49.500;7.764;2022-09-01T03:03:09;5.53;;;5.03;;
7432;SDS011;32233;49.500;7.764;2022-09-01T03:05:38;5.53;;;5.13;;
7432;SDS011;32233;49.500;7.764;2022-09-01T03:08:05;5.73;;;5.27;;
7432;SDS011;32233;49.500;7.764;2022-09-01T03:10:34;5.97;;;5.47;;
7432;SDS011;32233;49.500;7.764;2022-09-01T03:13:03;6.10;;;5.40;;
7432;SDS011;32233;49.500;7.764;2022-09-01T03:15:31;5.77;;;5.33;;
7432;SDS011;32233;49.500;7.764;2022-09-01T03:18:00;6.40;;;5.60;;
7432;SDS011;32233;49.500;7.764;2022-09-01T03:20:28;7.57;;;5.20;;
7432;SDS011;32233;49.500;7.764;2022-09-01T03:22:55;6.10;;;5.60;;
7432;SDS011;32233;49.500;7.764;2022-09-01T03:25:23;5.80;;;5.30;;
7432;SDS011;32233;49.500;7.764;2022-09-01T03:27:51;6.17;;;5.67;;
7432;SDS011;32233;49.500;7.764;2022-09-01T03:30:18;6.20;;;5.63;;
7432;SDS011;32233;49.500;7.764;2022-09-01T03:32:45;5.83;;;5.30;;
7432;SDS011;32233;49.500;7.764;2022-09-01T03:35:13;5.77;;;5.27;;
7432;SDS011;32233;49.500;7.764;2022-09-01T03:37:39;6.30;;;5.70;;
7432;SDS011;32233;49.500;7.764;2022-09-01T03:40:10;5.73;;;5.23;;
7432;SDS011;32233;49.500;7.764;2022-09-01T03:42:36;6.30;;;5.80;;
7432;SDS011;32233;49.500;7.764;2022-09-01T03:45:04;6.63;;;6.07;;
7432;SDS011;32233;49.500;7.764;2022-09-01T03:47:35;6.97;;;6.37;;
7432;SDS011;32233;49.500;7.764;2022-09-01T03:50:07;7.73;;;7.03;;
7432;SDS011;32233;49.500;7.764;2022-09-01T03:52:37;6.87;;;6.23;;
7432;SDS011;32233;49.500;7.764;2022-09-01T03:55:05;6.30;;;5.70;;
7432;SDS011;32233;49.500;7.764;2022-09-01T03:57:34;6.97;;;6.47;;
7432;SDS011;32233;49.500;7.764;2022-09-01T04:00:03;6.70;;;5.80;;
7432;SDS011;32233;49.500;7.764;2022-09-01T04:02:39;6.63;;;6.10;;
7432;SDS011;32233;49.500;7.764;2022-09-01T04:05:06;6.87;;;6.07;;
7432;SDS011;32233;49.500;7.764;2022-09-01T04:07:33;6.40;;;5.90;;
7432;SDS011;32233;49.500;7.764;2022-09-01T04:10:00;5.97;;;5.57;;
7432;SDS011;32233;49.500;7.764;2022-09-01T04:12:28;6.43;;;5.83;;
7432;SDS011;32233;49.500;7.764;2022-09-01T04:14:56;5.97;;;5.43;;
7432;SDS011;32233;49.500;7.764;2022-09-01T04:17:22;7.13;;;6.43;;
7432;SDS011;32233;49.500;7.764;2022-09-01T04:20:07;6.33;;;5.80;;
7432;SDS011;32233;49.500;7.764;2022-09-01T04:22:34;6.33;;;5.73;;
7432;SDS011;32233;49.500;7.764;2022-09-01T04:25:04;6.67;;;5.50;;
7432;SDS011;32233;49.500;7.764;2022-09-01T04:27:30;7.77;;;5.20;;
7432;SDS011;32233;49.500;7.764;2022-09-01T04:29:57;5.73;;;5.33;;
7432;SDS011;32233;49.500;7.764;2022-09-01T04:32:26;6.67;;;6.07;;
7432;SDS011;32233;49.500;7.764;2022-09-01T04:34:56;6.50;;;5.67;;
7432;SDS011;32233;49.500;7.764;2022-09-01T04:37:23;5.70;;;5.10;;
7432;SDS011;32233;49.500;7.764;2022-09-01T04:39:55;6.07;;;5.37;;
7432;SDS011;32233;49.500;7.764;2022-09-01T04:42:24;6.07;;;5.57;;
7432;SDS011;32233;49.500;7.764;2022-09-01T04:44:52;5.70;;;5.30;;
7432;SDS011;32233;49.500;7.764;2022-09-01T04:47:21;6.10;;;5.20;;
7432;SDS011;32233;49.500;7.764;2022-09-01T04:50:01;6.33;;;5.73;;
7432;SDS011;32233;49.500;7.764;2022-09-01T04:52:29;5.50;;;4.97;;
7432;SDS011;32233;49.500;7.764;2022-09-01T04:54:58;5.53;;;5.03;;
7432;SDS011;32233;49.500;7.764;2022-09-01T04:57:25;6.30;;;5.80;;
7432;SDS011;32233;49.500;7.764;2022-09-01T04:59:53;6.17;;;5.57;;
7432;SDS011;32233;49.500;7.764;2022-09-01T05:02:22;5.30;;;5.00;;
7432;SDS011;32233;49.500;7.764;2022-09-01T05:04:52;5.63;;;5.13;;
7432;SDS011;32233;49.500;7.764;2022-09-01T05:07:19;5.27;;;4.87;;
7432;SDS011;32233;49.500;7.764;2022-09-01T05:09:46;5.57;;;5.17;;
7432;SDS011;32233;49.500;7.764;2022-09-01T05:12:33;6.23;;;5.00;;
7432;SDS011;32233;49.500;7.764;2022-09-01T05:15:00;6.00;;;5.50;;
7432;SDS011;32233;49.500;7.764;2022-09-01T05:17:31;5.70;;;5.20;;
7432;SDS011;32233;49.500;7.764;2022-09-01T05:19:58;5.50;;;5.00;;
7432;SDS011;32233;49.500;7.764;2022-09-01T05:22:25;5.73;;;5.27;;
7432;SDS011;32233;49.500;7.764;2022-09-01T05:24:58;5.60;;;5.20;;
7432;SDS011;32233;49.500;7.764;2022-09-01T05:27:30;5.77;;;5.33;;
7432;SDS011;32233;49.500;7.764;2022-09-01T05:29:57;5.80;;;5.40;;
7432;SDS011;32233;49.500;7.764;2022-09-01T05:32:25;5.17;;;4.77;;
7432;SDS011;32233;49.500;7.764;2022-09-01T05:34:53;4.93;;;4.40;;
7432;SDS011;32233;49.500;7.764;2022-09-01T05:37:19;4.40;;;4.03;;
7432;SDS011;32233;49.500;7.764;2022-09-01T05:39:46;4.30;;;3.90;;
7432;SDS011;32233;49.500;7.764;2022-09-01T05:42:12;4.07;;;3.77;;
7432;SDS011;32233;49.500;7.764;2022-09-01T05:44:39;4.77;;;4.00;;
7432;SDS011;32233;49.500;7.764;2022-09-01T05:47:11;4.00;;;3.67;;
7432;SDS011;32233;49.500;7.764;2022-09-01T05:49:47;4.87;;;4.33;;
7432;SDS011;32233;49.500;7.764;2022-09-01T05:52:15;4.13;;;3.83;;
7432;SDS011;32233;49.500;7.764;2022-09-01T05:54:43;3.60;;;3.30;;
7432;SDS011;32233;49.500;7.764;2022-09-01T05:57:15;3.80;;;3.43;;
7432;SDS011;32233;49.500;7.764;2022-09-01T06:00:00;3.90;;;3.60;;
7432;SDS011;32233;49.500;7.764;2022-09-01T06:02:27;3.93;;;3.53;;
7432;SDS011;32233;49.500;7.764;2022-09-01T06:04:56;4.33;;;4.03;;
7432;SDS011;32233;49.500;7.764;2022-09-01T06:07:28;4.60;;;3.93;;
7432;SDS011;32233;49.500;7.764;2022-09-01T06:09:58;3.83;;;3.50;;
7432;SDS011;32233;49.500;7.764;2022-09-01T06:12:25;3.87;;;3.60;;
7432;SDS011;32233;49.500;7.764;2022-09-01T06:14:59;3.77;;;3.47;;
7432;SDS011;32233;49.500;7.764;2022-09-01T06:17:26;3.73;;;3.43;;
7432;SDS011;32233;49.500;7.764;2022-09-01T06:19:56;3.80;;;3.50;;
7432;SDS011;32233;49.500;7.764;2022-09-01T06:22:25;3.63;;;3.33;;
7432;SDS011;32233;49.500;7.764;2022-09-01T06:24:53;4.10;;;3.80;;
7432;SDS011;32233;49.500;7.764;2022-09-01T06:27:30;3.73;;;3.40;;
7432;SDS011;32233;49.500;7.764;2022-09-01T06:29:58;4.53;;;3.43;;
7432;SDS011;32233;49.500;7.764;2022-09-01T06:32:25;3.80;;;2.83;;
7432;SDS011;32233;49.500;7.764;2022-09-01T06:34:53;2.93;;;2.70;;
7432;SDS011;32233;49.500;7.764;2022-09-01T06:37:24;2.87;;;2.67;;
7432;SDS011;32233;49.500;7.764;2022-09-01T06:39:54;3.13;;;2.93;;
7432;SDS011;32233;49.500;7.764;2022-09-01T06:42:21;3.63;;;2.97;;
7432;SDS011;32233;49.500;7.764;2022-09-01T06:44:57;2.43;;;2.33;;
7432;SDS011;32233;49.500;7.764;2022-09-01T06:47:23;3.77;;;2.70;;
7432;SDS011;32233;49.500;7.764;2022-09-01T06:49:50;2.90;;;2.70;;
7432;SDS011;32233;49.500;7.764;2022-09-01T06:52:24;3.70;;;2.93;;
7432;SDS011;32233;49.500;7.764;2022-09-01T06:54:51;7.37;;;3.17;;
7432;SDS011;32233;49.500;7.764;2022-09-01T06:57:20;2.77;;;2.50;;
7432;SDS011;32233;49.500;7.764;2022-09-01T07:00:09;3.10;;;2.50;;
7432;SDS011;32233;49.500;7.764;2022-09-01T07:02:47;2.97;;;2.77;;
7432;SDS011;32233;49.500;7.764;2022-09-01T07:05:38;2.80;;;2.60;;
7432;SDS011;32233;49.500;7.764;2022-09-01T07:08:44;3.20;;;3.00;;
7432;SDS011;32233;49.500;7.764;2022-09-01T07:11:35;3.80;;;3.33;;
7432;SDS011;32233;49.500;7.764;2022-09-01T07:14:22;4.23;;;3.83;;
7432;SDS011;32233;49.500;7.764;2022-09-01T07:16:49;3.30;;;3.10;;
7432;SDS011;32233;49.500;7.764;2022-09-01T07:19:36;3.30;;;3.10;;
7432;SDS011;32233;49.500;7.764;2022-09-01T07:22:19;3.23;;;2.97;;
7432;SDS011;32233;49.500;7.764;2022-09-01T07:25:06;3.70;;;3.40;;
7432;SDS011;32233;49.500;7.764;2022-09-01T07:28:04;4.07;;;3.40;;
7432;SDS011;32233;49.500;7.764;2022-09-01T07:30:30;4.17;;;3.80;;
7432;SDS011;32233;49.500;7.764;2022-09-01T07:32:58;5.83;;;4.40;;
7432;SDS011;32233;49.500;7.764;2022-09-01T07:35:45;6.43;;;4.27;;
7432;SDS011;32233;49.500;7.764;2022-09-01T07:38:32;5.40;;;3.57;;
7432;SDS011;32233;49.500;7.764;2022-09-01T07:41:20;4.50;;;4.20;;
7432;SDS011;32233;49.500;7.764;2022-09-01T07:44:25;4.53;;;4.17;;
7432;SDS011;32233;49.500;7.764;2022-09-01T07:47:10;5.90;;;4.53;;
7432;SDS011;32233;49.500;7.764;2022-09-01T07:49:59;7.67;;;5.03;;
7432;SDS011;32233;49.500;7.764;2022-09-01T07:52:46;4.63;;;4.27;;
7432;SDS011;32233;49.500;7.764;2022-09-01T07:55:15;6.00;;;4.97;;
7432;SDS011;32233;49.500;7.764;2022-09-01T07:57:42;4.93;;;4.53;;
7432;SDS011;32233;49.500;7.764;2022-09-01T08:00:13;5.10;;;4.70;;
7432;SDS011;32233;49.500;7.764;2022-09-01T08:02:46;5.33;;;4.73;;
7432;SDS011;32233;49.500;7.764;2022-09-01T08:05:15;6.07;;;5.50;;
7432;SDS011;32233;49.500;7.764;2022-09-01T08:07:43;6.93;;;6.37;;
7432;SDS011;32233;49.500;7.764;2022-09-01T08:10:25;7.27;;;5.00;;
7432;SDS011;32233;49.500;7.764;2022-09-01T08:12:52;6.40;;;5.80;;
7432;SDS011;32233;49.500;7.764;2022-09-01T08:15:23;6.23;;;5.73;;
7432;SDS011;32233;49.500;7.764;2022-09-01T08:18:09;6.27;;;5.40;;
7432;SDS011;32233;49.500;7.764;2022-09-01T08:20:39;5.30;;;4.53;;
7432;SDS011;32233;49.500;7.764;2022-09-01T08:23:22;5.43;;;4.93;;
7432;SDS011;32233;49.500;7.764;2022-09-01T08:25:52;5.43;;;4.93;;
7432;SDS011;32233;49.500;7.764;2022-09-01T08:28:19;5.03;;;4.63;;
7432;SDS011;32233;49.500;7.764;2022-09-01T08:30:52;5.57;;;5.07;;
7432;SDS011;32233;49.500;7.764;2022-09-01T08:33:21;5.80;;;5.03;;
7432;SDS011;32233;49.500;7.764;2022-09-01T08:35:48;5.27;;;4.67;;
7432;SDS011;32233;49.500;7.764;2022-09-01T08:38:16;5.13;;;4.63;;
7432;SDS011;32233;49.500;7.764;2022-09-01T08:40:48;5.57;;;5.07;;
7432;SDS011;32233;49.500;7.764;2022-09-01T08:43:36;5.03;;;4.30;;
7432;SDS011;32233;49.500;7.764;2022-09-01T08:48:57;5.60;;;5.10;;
7432;SDS011;32233;49.500;7.764;2022-09-01T08:55:03;5.77;;;5.17;;
7432;SDS011;32233;49.500;7.764;2022-09-01T08:57:33;5.80;;;4.43;;
7432;SDS011;32233;49.500;7.764;2022-09-01T09:00:18;4.90;;;4.40;;
7432;SDS011;32233;49.500;7.764;2022-09-01T09:05:32;5.10;;;4.70;;
7432;SDS011;32233;49.500;7.764;2022-09-01T09:08:21;6.47;;;5.33;;
7432;SDS011;32233;49.500;7.764;2022-09-01T09:11:00;6.07;;;5.00;;
7432;SDS011;32233;49.500;7.764;2022-09-01T09:16:07;5.10;;;4.53;;
7432;SDS011;32233;49.500;7.764;2022-09-01T09:21:07;5.27;;;4.73;;
7432;SDS011;32233;49.500;7.764;2022-09-01T09:23:38;6.37;;;4.90;;
7432;SDS011;32233;49.500;7.764;2022-09-01T09:26:06;5.43;;;4.90;;
7432;SDS011;32233;49.500;7.764;2022-09-01T09:28:33;5.67;;;4.10;;
7432;SDS011;32233;49.500;7.764;2022-09-01T09:33:56;5.37;;;4.87;;
7432;SDS011;32233;49.500;7.764;2022-09-01T09:36:33;4.63;;;4.20;;
7432;SDS011;32233;49.500;7.764;2022-09-01T09:39:11;4.77;;;4.17;;
7432;SDS011;32233;49.500;7.764;2022-09-01T09:41:38;4.40;;;4.00;;
7432;SDS011;32233;49.500;7.764;2022-09-01T09:44:24;4.80;;;4.40;;
7432;SDS011;32233;49.500;7.764;2022-09-01T09:46:51;4.70;;;4.30;;
7432;SDS011;32233;49.500;7.764;2022-09-01T09:49:22;5.03;;;4.63;;
7432;SDS011;32233;49.500;7.764;2022-09-01T09:54:37;4.90;;;4.40;;
7432;SDS011;32233;49.500;7.764;2022-09-01T10:02:34;4.47;;;3.90;;
7432;SDS011;32233;49.500;7.764;2022-09-01T10:05:20;4.87;;;4.40;;
7432;SDS011;32233;49.500;7.764;2022-09-01T10:07:47;4.80;;;4.30;;
7432;SDS011;32233;49.500;7.764;2022-09-01T10:13:24;4.17;;;3.87;;
7432;SDS011;32233;49.500;7.764;2022-09-01T10:15:54;5.67;;;4.47;;
7432;SDS011;32233;49.500;7.764;2022-09-01T10:18:22;4.57;;;4.17;;
7432;SDS011;32233;49.500;7.764;2022-09-01T10:20:59;4.67;;;4.27;;
7432;SDS011;32233;49.500;7.764;2022-09-01T10:23:28;4.37;;;4.07;;
7432;SDS011;32233;49.500;7.764;2022-09-01T10:26:01;5.00;;;3.90;;
7432;SDS011;32233;49.500;7.764;2022-09-01T10:28:32;5.23;;;4.30;;
7432;SDS011;32233;49.500;7.764;2022-09-01T10:30:59;4.33;;;3.90;;
7432;SDS011;32233;49.500;7.764;2022-09-01T10:33:26;4.20;;;3.90;;
7432;SDS011;32233;49.500;7.764;2022-09-01T10:35:53;5.10;;;4.47;;
7432;SDS011;32233;49.500;7.764;2022-09-01T10:38:27;5.10;;;3.90;;
7432;SDS011;32233;49.500;7.764;2022-09-01T10:40:55;4.83;;;4.43;;
7432;SDS011;32233;49.500;7.764;2022-09-01T10:43:40;4.50;;;4.13;;
7432;SDS011;32233;49.500;7.764;2022-09-01T10:49:19;4.57;;;4.27;;
7432;SDS011;32233;49.500;7.764;2022-09-01T10:51:53;5.07;;;4.33;;
7432;SDS011;32233;49.500;7.764;2022-09-01T10:57:24;4.23;;;3.87;;
7432;SDS011;32233;49.500;7.764;2022-09-01T11:00:13;5.23;;;4.73;;
7432;SDS011;32233;49.500;7.764;2022-09-01T11:03:35;4.20;;;3.90;;
7432;SDS011;32233;49.500;7.764;2022-09-01T11:13:35;5.13;;;4.50;;
7432;SDS011;32233;49.500;7.764;2022-09-01T11:19:42;5.20;;;4.50;;
7432;SDS011;32233;49.500;7.764;2022-09-01T11:30:14;5.00;;;4.50;;
7432;SDS011;32233;49.500;7.764;2022-09-01T11:32:41;4.87;;;4.47;;
7432;SDS011;32233;49.500;7.764;2022-09-01T11:35:16;7.80;;;4.60;;
7432;SDS011;32233;49.500;7.764;2022-09-01T11:37:48;4.77;;;4.47;;
7432;SDS011;32233;49.500;7.764;2022-09-01T11:40:19;4.83;;;4.43;;
7432;SDS011;32233;49.500;7.764;2022-09-01T11:42:46;4.47;;;4.10;;
7432;SDS011;32233;49.500;7.764;2022-09-01T11:45:17;5.10;;;4.70;;
7432;SDS011;32233;49.500;7.764;2022-09-01T11:47:48;5.00;;;4.50;;
7432;SDS011;32233;49.500;7.764;2022-09-01T11:50:17;4.80;;;4.40;;
7432;SDS011;32233;49.500;7.764;2022-09-01T11:52:52;5.07;;;4.60;;
7432;SDS011;32233;49.500;7.764;2022-09-01T11:55:33;5.33;;;4.37;;
7432;SDS011;32233;49.500;7.764;2022-09-01T11:58:00;4.40;;;4.10;;
7432;SDS011;32233;49.500;7.764;2022-09-01T12:00:28;4.17;;;3.87;;
7432;SDS011;32233;49.500;7.764;2022-09-01T12:02:55;4.57;;;4.17;;
7432;SDS011;32233;49.500;7.764;2022-09-01T12:05:30;5.00;;;4.57;;
7432;SDS011;32233;49.500;7.764;2022-09-01T12:07:57;4.27;;;3.50;;
7432;SDS011;32233;49.500;7.764;2022-09-01T12:13:00;4.03;;;3.73;;
7432;SDS011;32233;49.500;7.764;2022-09-01T12:15:26;4.23;;;3.93;;
7432;SDS011;32233;49.500;7.764;2022-09-01T12:18:03;3.97;;;3.67;;
7432;SDS011;32233;49.500;7.764;2022-09-01T12:20:34;4.43;;;4.03;;
7432;SDS011;32233;49.500;7.764;2022-09-01T12:23:01;5.00;;;4.57;;
7432;SDS011;32233;49.500;7.764;2022-09-01T12:25:28;5.77;;;3.80;;
7432;SDS011;32233;49.500;7.764;2022-09-01T12:27:56;4.30;;;4.00;;
7432;SDS011;32233;49.500;7.764;2022-09-01T12:30:24;3.87;;;3.57;;
7432;SDS011;32233;49.500;7.764;2022-09-01T12:32:51;4.10;;;3.70;;
7432;SDS011;32233;49.500;7.764;2022-09-01T12:35:38;3.73;;;3.43;;
7432;SDS011;32233;49.500;7.764;2022-09-01T12:40:47;4.23;;;3.93;;
7432;SDS011;32233;49.500;7.764;2022-09-01T12:43:31;4.20;;;3.90;;
7432;SDS011;32233;49.500;7.764;2022-09-01T12:45:58;5.00;;;4.50;;
7432;SDS011;32233;49.500;7.764;2022-09-01T12:48:33;4.77;;;4.37;;
7432;SDS011;32233;49.500;7.764;2022-09-01T12:51:01;4.83;;;4.47;;
7432;SDS011;32233;49.500;7.764;2022-09-01T12:53:28;5.83;;;4.83;;
7432;SDS011;32233;49.500;7.764;2022-09-01T12:55:59;4.60;;;4.20;;
7432;SDS011;32233;49.500;7.764;2022-09-01T12:58:26;4.77;;;4.40;;
7432;SDS011;32233;49.500;7.764;2022-09-01T13:00:56;4.67;;;4.27;;
7432;SDS011;32233;49.500;7.764;2022-09-01T13:03:23;4.70;;;4.13;;
7432;SDS011;32233;49.500;7.764;2022-09-01T13:05:53;5.00;;;4.50;;
7432;SDS011;32233;49.500;7.764;2022-09-01T13:08:20;4.70;;;4.30;;
7432;SDS011;32233;49.500;7.764;2022-09-01T13:10:51;4.60;;;4.10;;
7432;SDS011;32233;49.500;7.764;2022-09-01T13:13:19;4.70;;;4.30;;
7432;SDS011;32233;49.500;7.764;2022-09-01T13:15:46;4.50;;;4.10;;
7432;SDS011;32233;49.500;7.764;2022-09-01T13:18:14;5.43;;;4.63;;
7432;SDS011;32233;49.500;7.764;2022-09-01T13:20:41;4.33;;;3.97;;
7432;SDS011;32233;49.500;7.764;2022-09-01T13:23:08;4.53;;;4.23;;
7432;SDS011;32233;49.500;7.764;2022-09-01T13:25:34;4.63;;;4.13;;
7432;SDS011;32233;49.500;7.764;2022-09-01T13:28:01;4.30;;;4.00;;
7432;SDS011;32233;49.500;7.764;2022-09-01T13:30:28;5.07;;;4.70;;
7432;SDS011;32233;49.500;7.764;2022-09-01T13:32:55;4.27;;;3.93;;
7432;SDS011;32233;49.500;7.764;2022-09-01T13:35:42;3.83;;;3.63;;
7432;SDS011;32233;49.500;7.764;2022-09-01T13:38:09;4.10;;;3.80;;
7432;SDS011;32233;49.500;7.764;2022-09-01T13:40:35;3.90;;;3.70;;
7432;SDS011;32233;49.500;7.764;2022-09-01T13:43:02;4.33;;;4.03;;
7432;SDS011;32233;49.500;7.764;2022-09-01T13:45:30;4.83;;;3.27;;
7432;SDS011;32233;49.500;7.764;2022-09-01T13:47:57;3.53;;;3.23;;
7432;SDS011;32233;49.500;7.764;2022-09-01T13:50:44;4.07;;;3.73;;
7432;SDS011;32233;49.500;7.764;2022-09-01T13:53:31;3.70;;;3.40;;
7432;SDS011;32233;49.500;7.764;2022-09-01T13:55:57;4.20;;;3.30;;
7432;SDS011;32233;49.500;7.764;2022-09-01T13:58:24;6.50;;;3.60;;
7432;SDS011;32233;49.500;7.764;2022-09-01T14:00:50;5.03;;;3.20;;
7432;SDS011;32233;49.500;7.764;2022-09-01T14:03:19;4.23;;;3.40;;
7432;SDS011;32233;49.500;7.764;2022-09-01T14:05:46;4.07;;;3.73;;
7432;SDS011;32233;49.500;7.764;2022-09-01T14:08:15;4.53;;;3.63;;
7432;SDS011;32233;49.500;7.764;2022-09-01T14:10:43;3.50;;;3.30;;
7432;SDS011;32233;49.500;7.764;2022-09-01T14:13:10;4.07;;;3.77;;
7432;SDS011;32233;49.500;7.764;2022-09-01T14:15:37;3.50;;;3.20;;
7432;SDS011;32233;49.500;7.764;2022-09-01T14:18:03;3.40;;;3.10;;
7432;SDS011;32233;49.500;7.764;2022-09-01T14:20:32;3.17;;;2.87;;
7432;SDS011;32233;49.500;7.764;2022-09-01T14:23:02;2.50;;;2.40;;
7432;SDS011;32233;49.500;7.764;2022-09-01T14:25:30;2.57;;;2.40;;
7432;SDS011;32233;49.500;7.764;2022-09-01T14:27:56;2.90;;;2.70;;
7432;SDS011;32233;49.500;7.764;2022-09-01T14:30:24;2.83;;;2.63;;
7432;SDS011;32233;49.500;7.764;2022-09-01T14:32:56;2.57;;;2.47;;
7432;SDS011;32233;49.500;7.764;2022-09-01T14:35:24;3.07;;;2.70;;
7432;SDS011;32233;49.500;7.764;2022-09-01T14:37:52;2.53;;;2.40;;
7432;SDS011;32233;49.500;7.764;2022-09-01T14:40:20;2.20;;;2.10;;
7432;SDS011;32233;49.500;7.764;2022-09-01T14:42:49;2.47;;;2.37;;
7432;SDS011;32233;49.500;7.764;2022-09-01T14:45:18;3.03;;;2.40;;
7432;SDS011;32233;49.500;7.764;2022-09-01T14:47:46;2.87;;;2.70;;
7432;SDS011;32233;49.500;7.764;2022-09-01T14:50:14;3.13;;;2.83;;
7432;SDS011;32233;49.500;7.764;2022-09-01T14:52:48;2.60;;;2.40;;
7432;SDS011;32233;49.500;7.764;2022-09-01T14:55:15;2.57;;;2.37;;
7432;SDS011;32233;49.500;7.764;2022-09-01T14:57:42;2.50;;;2.40;;
7432;SDS011;32233;49.500;7.764;2022-09-01T15:00:10;2.87;;;2.70;;
7432;SDS011;32233;49.500;7.764;2022-09-01T15:02:40;3.37;;;2.60;;
7432;SDS011;32233;49.500;7.764;2022-09-01T15:05:07;2.73;;;2.53;;
7432;SDS011;32233;49.500;7.764;2022-09-01T15:07:34;2.20;;;2.10;;
7432;SDS011;32233;49.500;7.764;2022-09-01T15:10:00;2.67;;;2.50;;
7432;SDS011;32233;49.500;7.764;2022-09-01T15:12:27;2.93;;;2.73;;
7432;SDS011;32233;49.500;7.764;2022-09-01T15:14:56;2.53;;;2.33;;
7432;SDS011;32233;49.500;7.764;2022-09-01T15:17:24;2.60;;;2.40;;
7432;SDS011;32233;49.500;7.764;2022-09-01T15:19:51;2.80;;;2.60;;
7432;SDS011;32233;49.500;7.764;2022-09-01T15:22:17;2.67;;;2.47;;
7432;SDS011;32233;49.500;7.764;2022-09-01T15:24:44;2.53;;;2.33;;
7432;SDS011;32233;49.500;7.764;2022-09-01T15:27:11;3.00;;;2.70;;
7432;SDS011;32233;49.500;7.764;2022-09-01T15:29:38;3.20;;;2.90;;
7432;SDS011;32233;49.500;7.764;2022-09-01T15:32:11;2.80;;;2.70;;
7432;SDS011;32233;49.500;7.764;2022-09-01T15:34:52;3.00;;;2.80;;
7432;SDS011;32233;49.500;7.764;2022-09-01T15:37:19;3.50;;;2.77;;
7432;SDS011;32233;49.500;7.764;2022-09-01T15:39:45;2.80;;;2.60;;
7432;SDS011;32233;49.500;7.764;2022-09-01T15:42:12;3.87;;;2.63;;
7432;SDS011;32233;49.500;7.764;2022-09-01T15:44:38;2.97;;;2.77;;
7432;SDS011;32233;49.500;7.764;2022-09-01T15:47:04;3.63;;;2.77;;
7432;SDS011;32233;49.500;7.764;2022-09-01T15:49:31;2.97;;;2.67;;
7432;SDS011;32233;49.500;7.764;2022-09-01T15:51:57;2.93;;;2.70;;
7432;SDS011;32233;49.500;7.764;2022-09-01T15:54:24;3.10;;;2.90;;
7432;SDS011;32233;49.500;7.764;2022-09-01T15:56:55;2.93;;;2.70;;
7432;SDS011;32233;49.500;7.764;2022-09-01T15:59:22;2.93;;;2.70;;
7432;SDS011;32233;49.500;7.764;2022-09-01T16:01:48;2.50;;;2.40;;
7432;SDS011;32233;49.500;7.764;2022-09-01T16:04:17;3.33;;;2.70;;
7432;SDS011;32233;49.500;7.764;2022-09-01T16:06:49;3.03;;;2.67;;
7432;SDS011;32233;49.500;7.764;2022-09-01T16:09:16;3.37;;;2.80;;
7432;SDS011;32233;49.500;7.764;2022-09-01T16:11:50;3.07;;;2.77;;
7432;SDS011;32233;49.500;7.764;2022-09-01T16:14:17;2.67;;;2.47;;
7432;SDS011;32233;49.500;7.764;2022-09-01T16:24:12;3.47;;;3.10;;
7432;SDS011;32233;49.500;7.764;2022-09-01T16:26:39;3.40;;;3.10;;
7432;SDS011;32233;49.500;7.764;2022-09-01T16:29:08;3.30;;;3.10;;
7432;SDS011;32233;49.500;7.764;2022-09-01T16:31:37;3.27;;;3.07;;